»·PEaware :: N7600K KIFP-KLAX

N7600K :: KIFP-KLAX

FLIGHT INFORMATION

Flight Status: Arrived
Operator: Privately registered:
United States
More flights under this callsign
Pilot: Ryan B. (8502)
Aircraft: MCDONNELL-DOUGLAS MD-88
(MD88)
More flights by this aircraft type
Origin: KIFP Laughlin/Bullhead Intl
United States
Destination: KLAX Los Angeles Intl
United States
More flights between these airports :: More routes between these airports
Route: +EED SHATNR ANJLL1
File this flight plan on PilotEdge
Remarks: CHARTER SERVICE
Altitude:
(Current/Filed)
28,000ft
Speed:
(Current/Filed)
456kts
Departed: 31-May-17 10:39 AM
Arrived: 31-May-17 11:20 AM
Distance/Time
Traveled:
203nm/0:41
Distance/Time
To Go:
Arrived

Flight Plot

Page will automatically refresh every two minutes.

Flight plan parsing failed; only flown route is shown


Map Options




Map Legend


Flown Route
Filed Route
Departure Airport
Arrival Airport
Navaid (VOR, NDB)
Fix

Horizontal Profiles

Position Reports

Time Latitude Longitude Heading Altitude Ground
Speed
31-May-17 10:25 35.165151 -114.556330 85 665ft 0kts
31-May-17 10:26 35.165151 -114.556330 85 665ft 0kts
31-May-17 10:27 35.165151 -114.556330 85 665ft 0kts
31-May-17 10:28 35.165151 -114.556330 85 665ft 0kts
31-May-17 10:29 35.165151 -114.556330 85 665ft 0kts
31-May-17 10:30 35.165151 -114.556330 85 665ft 0kts
31-May-17 10:31 35.165151 -114.556330 85 665ft 0kts
31-May-17 10:32 35.165151 -114.556330 85 665ft 0kts
31-May-17 10:33 35.165151 -114.556330 85 665ft 0kts
31-May-17 10:34 35.165151 -114.556330 85 665ft 0kts
31-May-17 10:35 35.165151 -114.556330 85 665ft 0kts
31-May-17 10:36 35.165151 -114.556330 85 665ft 0kts
31-May-17 10:37 35.165089 -114.557198 69 658ft 0kts
31-May-17 10:38 35.165018 -114.556869 196 661ft 3kts
31-May-17 10:39 35.165732 -114.558653 0 645ft 4kts
31-May-17 10:40 35.166137 -114.559830 251 632ft 12kts
31-May-17 10:41 35.144718 -114.558748 179 1194ft 154kts
31-May-17 10:42 35.101486 -114.550595 170 3789ft 186kts
31-May-17 10:43 35.042585 -114.536419 170 6817ft 253kts
31-May-17 10:44 34.972761 -114.550516 224 10438ft 279kts
31-May-17 10:45 34.974893 -114.654561 276 12692ft 357kts
31-May-17 10:46 34.993523 -114.776425 278 16227ft 374kts
31-May-17 10:47 35.013794 -114.902666 278 19503ft 387kts
31-May-17 10:48 35.034949 -115.033184 278 22386ft 400kts
31-May-17 10:49 35.057383 -115.170728 278 25113ft 415kts
31-May-17 10:50 35.080443 -115.311433 278 27811ft 437kts
31-May-17 10:51 35.105084 -115.460391 279 27903ft 450kts
31-May-17 10:52 35.101587 -115.606114 240 27945ft 439kts
31-May-17 10:53 35.021474 -115.710091 225 27974ft 431kts
31-May-17 10:54 34.937786 -115.815514 226 27979ft 443kts
31-May-17 10:55 34.859103 -115.915114 226 27992ft 442kts
31-May-17 10:56 34.775155 -116.021516 226 27992ft 442kts
31-May-17 10:57 34.691097 -116.128157 226 27991ft 442kts
31-May-17 10:58 34.607179 -116.234727 227 27983ft 442kts
31-May-17 10:59 34.523770 -116.340526 227 27989ft 442kts
31-May-17 11:00 34.441862 -116.445131 227 27963ft 411kts
31-May-17 11:01 34.385608 -116.552049 244 27943ft 363kts
31-May-17 11:02 34.342912 -116.656543 242 27162ft 400kts
31-May-17 11:03 34.296957 -116.770110 242 25284ft 390kts
31-May-17 11:04 34.251022 -116.883975 242 23207ft 378kts
31-May-17 11:05 34.208093 -116.994821 246 21354ft 364kts
31-May-17 11:06 34.178308 -117.104221 250 19436ft 358kts
31-May-17 11:07 34.148386 -117.213794 249 17539ft 349kts
31-May-17 11:08 34.123434 -117.304359 249 15964ft 342kts
31-May-17 11:09 34.091151 -117.426521 251 14010ft 327kts
31-May-17 11:10 34.069470 -117.509533 246 12878ft 316kts
31-May-17 11:11 34.030050 -117.618305 244 11041ft 305kts
31-May-17 11:12 34.003888 -117.703730 259 10208ft 281kts
31-May-17 11:13 33.997493 -117.778322 261 9356ft 270kts
31-May-17 11:14 33.987883 -117.881337 261 7811ft 267kts
31-May-17 11:15 33.979486 -117.967249 261 6625ft 261kts
31-May-17 11:16 33.972432 -118.037976 261 5631ft 257kts
31-May-17 11:17 33.964028 -118.121667 262 4383ft 256kts
31-May-17 11:18 33.954313 -118.217678 263 2832ft 255kts
31-May-17 11:19 33.947359 -118.285888 263 1705ft 244kts
31-May-17 11:20 33.941250 -118.344520 263 923ft 157kts
31-May-17 11:21 33.936668 -118.389486 261 103ft 124kts
31-May-17 11:22 33.934191 -118.401808 121 118ft 7kts
31-May-17 11:23 33.933861 -118.397596 119 111ft 9kts

Navigation Log

Ident Type
Flight plan parsing failed, navigation log unavailable